Time;durP1;ratioP1;P1;durP2;ratioP2;P2;SDS_P1;SDS_P2;PMS_P1;PMS_P2;Temp;Humidity;BMP_temperature;BMP_pressure;BME280_temperature;BME280_humidity;BME280_pressure;Samples;Min_cycle;Max_cycle;Signal;HPM_P1;HPM_P2
2022/07/17 00:01:19;;;;;;;;;;;14.60;99.90;;;;;;5015335;28;19909;-73
2022/07/17 00:03:46;;;;;;;;;;;14.70;99.90;;;;;;5015410;28;20283;-73
2022/07/17 00:06:14;;;;;;;;;;;14.80;99.90;;;;;;5015248;28;19922;-73
2022/07/17 00:08:41;;;;;;;;;;;15.00;99.90;;;;;;5015026;28;19917;-73
2022/07/17 00:11:08;;;;;;;;;;;15.20;99.90;;;;;;5015232;28;19914;-74
2022/07/17 00:13:34;;;;;;;;;;;15.20;99.90;;;;;;5015184;28;19955;-73
2022/07/17 00:16:01;;;;;;;;;;;15.20;99.90;;;;;;5030169;28;19924;-73
2022/07/17 00:18:28;;;;;;;;;;;15.10;99.90;;;;;;5015230;28;19920;-73
2022/07/17 00:20:54;;;;;;;;;;;15.20;99.90;;;;;;5014776;28;19909;-72
2022/07/17 00:23:21;;;;;;;;;;;15.30;99.90;;;;;;5013366;28;20426;-72
2022/07/17 00:25:48;;;;;;;;;;;15.40;99.90;;;;;;5015022;28;19914;-72
2022/07/17 00:28:14;;;;;;;;;;;15.40;99.90;;;;;;5014900;28;19909;-73
2022/07/17 00:30:41;;;;;;;;;;;15.40;99.90;;;;;;5014607;28;20505;-72
2022/07/17 00:33:08;;;;;;;;;;;15.60;99.90;;;;;;5014733;28;19920;-72
2022/07/17 00:35:34;;;;;;;;;;;15.70;99.90;;;;;;5014664;28;19983;-73
2022/07/17 00:38:01;;;;;;;;;;;15.90;99.90;;;;;;5014219;28;19936;-73
2022/07/17 00:40:28;;;;;;;;;;;15.90;99.90;;;;;;5014699;28;19920;-73
2022/07/17 00:42:55;;;;;;;;;;;15.80;99.90;;;;;;5014475;28;19910;-73
2022/07/17 00:45:24;;;;;;;;;;;16.10;99.90;;;;;;5014938;28;19910;-72
2022/07/17 00:47:57;;;;;;;;;;;16.10;99.90;;;;;;5014590;28;20398;-73
2022/07/17 00:50:25;;;;;;;;;;;16.00;99.40;;;;;;5014350;28;19910;-73
2022/07/17 00:52:52;;;;;;;;;;;16.10;99.40;;;;;;5013767;28;19910;-73
2022/07/17 00:55:19;;;;;;;;;;;16.40;98.20;;;;;;5014145;28;20008;-73
2022/07/17 00:57:47;;;;;;;;;;;16.30;98.40;;;;;;5014457;28;19915;-73
2022/07/17 01:00:15;;;;;;;;;;;16.40;98.20;;;;;;5014257;28;20249;-73
2022/07/17 01:02:45;;;;;;;;;;;16.40;98.20;;;;;;5014359;28;19932;-73
2022/07/17 01:05:12;;;;;;;;;;;16.60;97.40;;;;;;5013809;28;19917;-72
2022/07/17 01:07:39;;;;;;;;;;;16.90;97.10;;;;;;5013723;28;20401;-73
2022/07/17 01:10:06;;;;;;;;;;;17.20;97.20;;;;;;5014158;28;19955;-73
2022/07/17 01:12:33;;;;;;;;;;;17.70;96.30;;;;;;5014138;28;19910;-74
2022/07/17 01:15:01;;;;;;;;;;;18.00;96.20;;;;;;5013633;28;20278;-72
2022/07/17 01:17:28;;;;;;;;;;;18.30;95.60;;;;;;5013917;28;19964;-73
2022/07/17 01:19:54;;;;;;;;;;;18.40;94.90;;;;;;5013968;28;20301;-75
2022/07/17 01:22:21;;;;;;;;;;;18.50;95.70;;;;;;5013337;28;20311;-72
2022/07/17 01:24:48;;;;;;;;;;;18.80;95.00;;;;;;5013966;28;19914;-73
2022/07/17 01:27:15;;;;;;;;;;;18.90;94.60;;;;;;5013817;28;19964;-73
2022/07/17 01:29:42;;;;;;;;;;;18.70;94.90;;;;;;5013838;28;19955;-73
2022/07/17 01:32:09;;;;;;;;;;;18.40;94.90;;;;;;5013776;28;19910;-73
2022/07/17 01:34:36;;;;;;;;;;;18.20;95.50;;;;;;5013477;28;19909;-72
2022/07/17 01:37:02;;;;;;;;;;;18.00;95.50;;;;;;5012977;28;19916;-71
2022/07/17 01:40:12;;;;;;;;;;;17.90;95.50;;;;;;5013621;28;20426;-72
2022/07/17 01:42:19;;;;;;;;;;;17.90;95.70;;;;;;5010718;28;19949;-72
2022/07/17 01:44:46;;;;;;;;;;;17.80;95.30;;;;;;5013768;28;19916;-72
2022/07/17 01:47:15;;;;;;;;;;;17.80;95.50;;;;;;5013458;28;20008;-73
2022/07/17 01:49:48;;;;;;;;;;;17.90;95.00;;;;;;5013586;28;20205;-73
2022/07/17 01:52:15;;;;;;;;;;;17.90;95.20;;;;;;5013018;28;19997;-72
2022/07/17 01:54:42;;;;;;;;;;;18.00;95.20;;;;;;5013465;28;19914;-71
2022/07/17 01:57:09;;;;;;;;;;;18.00;94.60;;;;;;5013389;28;19913;-71
2022/07/17 01:59:37;;;;;;;;;;;18.10;94.70;;;;;;5013421;28;20418;-73
2022/07/17 02:02:04;;;;;;;;;;;18.10;95.00;;;;;;5013037;28;19909;-72
2022/07/17 02:04:32;;;;;;;;;;;18.10;94.90;;;;;;5013429;28;20332;-72
2022/07/17 02:06:59;;;;;;;;;;;18.10;94.70;;;;;;5013001;28;19918;-71
2022/07/17 02:09:25;;;;;;;;;;;18.00;95.60;;;;;;5013397;28;19909;-71
2022/07/17 02:11:52;;;;;;;;;;;17.90;95.20;;;;;;5013506;28;19953;-72
2022/07/17 02:14:19;;;;;;;;;;;17.80;95.80;;;;;;5013477;28;19910;-72
2022/07/17 02:16:45;;;;;;;;;;;17.90;95.60;;;;;;5013017;28;20275;-72
2022/07/17 02:19:12;;;;;;;;;;;18.10;95.30;;;;;;5013094;28;19910;-71
2022/07/17 02:21:39;;;;;;;;;;;18.20;94.70;;;;;;5013184;28;19910;-71
2022/07/17 02:24:06;;;;;;;;;;;18.00;94.90;;;;;;5013337;28;19914;-72
2022/07/17 02:26:33;;;;;;;;;;;17.80;95.60;;;;;;5013387;28;20288;-71
2022/07/17 02:28:59;;;;;;;;;;;18.00;94.70;;;;;;5013057;28;19916;-72
2022/07/17 02:31:26;;;;;;;;;;;18.10;93.30;;;;;;5013128;28;19957;-73
2022/07/17 02:33:53;;;;;;;;;;;18.30;93.80;;;;;;5013298;28;19940;-72
2022/07/17 02:36:19;;;;;;;;;;;18.40;92.50;;;;;;5013105;28;19939;-71
2022/07/17 02:38:46;;;;;;;;;;;18.40;91.60;;;;;;5013231;28;19965;-71
2022/07/17 02:41:13;;;;;;;;;;;18.50;91.50;;;;;;5012777;28;19916;-71
2022/07/17 02:43:39;;;;;;;;;;;18.30;92.10;;;;;;5013125;28;19910;-71
2022/07/17 02:46:06;;;;;;;;;;;18.20;92.00;;;;;;5012944;28;20027;-72
2022/07/17 02:48:33;;;;;;;;;;;18.10;92.50;;;;;;5016358;28;19909;-72
2022/07/17 02:50:59;;;;;;;;;;;18.10;92.60;;;;;;5016533;28;20386;-71
2022/07/17 02:53:26;;;;;;;;;;;18.00;92.40;;;;;;5016562;28;19909;-72
2022/07/17 02:55:53;;;;;;;;;;;18.20;92.40;;;;;;5016638;28;19917;-72
2022/07/17 02:58:20;;;;;;;;;;;18.50;91.50;;;;;;5016557;28;20275;-72
2022/07/17 03:00:46;;;;;;;;;;;18.50;91.60;;;;;;5016488;28;19913;-71
2022/07/17 03:03:13;;;;;;;;;;;18.30;91.70;;;;;;5016611;28;20263;-71
2022/07/17 03:05:40;;;;;;;;;;;18.30;91.60;;;;;;5016203;28;19930;-72
2022/07/17 03:08:06;;;;;;;;;;;18.30;92.10;;;;;;5016443;28;19964;-72
2022/07/17 03:10:33;;;;;;;;;;;18.40;92.10;;;;;;5016430;28;19909;-71
2022/07/17 03:13:00;;;;;;;;;;;18.40;91.60;;;;;;5016077;28;19949;-72
2022/07/17 03:15:26;;;;;;;;;;;18.40;91.60;;;;;;5016115;28;19917;-72
2022/07/17 03:17:53;;;;;;;;;;;18.30;92.10;;;;;;5016139;28;19910;-72
2022/07/17 03:20:20;;;;;;;;;;;18.30;91.60;;;;;;5016214;28;19917;-72
2022/07/17 03:22:47;;;;;;;;;;;18.40;91.60;;;;;;5016191;28;19910;-72
2022/07/17 03:25:13;;;;;;;;;;;18.40;91.60;;;;;;5016056;28;19917;-72
2022/07/17 03:27:40;;;;;;;;;;;18.20;91.70;;;;;;5016133;28;19982;-72
2022/07/17 03:30:07;;;;;;;;;;;18.30;91.30;;;;;;5015992;28;20422;-73
2022/07/17 03:32:34;;;;;;;;;;;18.30;91.20;;;;;;5016101;28;20257;-72
2022/07/17 03:35:01;;;;;;;;;;;18.50;90.20;;;;;;5015827;28;19921;-71
2022/07/17 03:37:28;;;;;;;;;;;18.70;90.00;;;;;;5015815;28;19917;-71
2022/07/17 03:39:55;;;;;;;;;;;18.50;90.10;;;;;;5015959;28;20060;-73
2022/07/17 03:42:22;;;;;;;;;;;18.40;91.10;;;;;;5015869;28;19909;-72
2022/07/17 03:44:48;;;;;;;;;;;18.40;91.00;;;;;;4998037;28;19925;-72
2022/07/17 03:47:15;;;;;;;;;;;18.60;89.30;;;;;;5015627;28;19916;-72
2022/07/17 03:49:42;;;;;;;;;;;18.40;89.00;;;;;;5015755;28;19913;-73
2022/07/17 03:52:09;;;;;;;;;;;18.50;86.40;;;;;;5015720;28;19909;-72
2022/07/17 03:54:35;;;;;;;;;;;18.60;84.80;;;;;;5015480;28;19956;-72
2022/07/17 03:57:02;;;;;;;;;;;18.40;85.90;;;;;;5015331;28;19917;-72
2022/07/17 03:59:29;;;;;;;;;;;18.40;88.10;;;;;;5015146;28;20322;-72
2022/07/17 04:01:56;;;;;;;;;;;18.40;87.60;;;;;;5015497;28;19917;-71
2022/07/17 04:04:22;;;;;;;;;;;18.40;87.60;;;;;;5015101;28;19917;-72
2022/07/17 04:06:49;;;;;;;;;;;18.40;88.40;;;;;;5015376;28;19913;-72
2022/07/17 04:09:16;;;;;;;;;;;18.50;87.20;;;;;;5015096;28;19963;-72
2022/07/17 04:11:42;;;;;;;;;;;18.40;87.20;;;;;;5015280;28;19909;-72
2022/07/17 04:14:09;;;;;;;;;;;18.30;87.70;;;;;;5013200;28;19915;-73
2022/07/17 04:16:36;;;;;;;;;;;18.30;88.10;;;;;;5014921;28;20356;-72
2022/07/17 04:19:03;;;;;;;;;;;18.20;88.30;;;;;;5014388;28;19932;-72
2022/07/17 04:21:29;;;;;;;;;;;18.30;87.80;;;;;;5015101;28;20039;-72
2022/07/17 04:23:56;;;;;;;;;;;18.40;86.80;;;;;;5015057;28;19910;-72
2022/07/17 04:26:23;;;;;;;;;;;18.40;87.20;;;;;;5014815;28;20024;-72
2022/07/17 04:28:49;;;;;;;;;;;18.30;88.90;;;;;;5014893;28;19910;-73
2022/07/17 04:31:16;;;;;;;;;;;18.20;86.60;;;;;;5014836;28;19916;-72
2022/07/17 04:33:43;;;;;;;;;;;18.20;88.60;;;;;;5014348;28;20374;-72
2022/07/17 04:36:10;;;;;;;;;;;18.20;87.80;;;;;;5014721;28;19965;-73
2022/07/17 04:38:36;;;;;;;;;;;18.30;86.00;;;;;;5013129;28;20004;-72
2022/07/17 04:41:03;;;;;;;;;;;18.30;86.80;;;;;;5013738;28;19910;-74
2022/07/17 04:43:30;;;;;;;;;;;18.20;88.60;;;;;;5013993;28;19917;-72
2022/07/17 04:45:56;;;;;;;;;;;18.20;87.30;;;;;;5013893;28;19963;-73
2022/07/17 04:48:23;;;;;;;;;;;18.30;88.00;;;;;;5013835;28;19909;-72
2022/07/17 04:50:50;;;;;;;;;;;18.10;87.30;;;;;;5013727;28;19909;-72
2022/07/17 04:53:16;;;;;;;;;;;18.20;86.90;;;;;;5013889;28;19913;-71
2022/07/17 04:55:43;;;;;;;;;;;18.20;88.10;;;;;;5013535;28;19918;-72
2022/07/17 04:58:10;;;;;;;;;;;18.10;87.30;;;;;;5013830;28;20410;-72
2022/07/17 05:00:36;;;;;;;;;;;18.20;86.30;;;;;;5013621;28;19979;-72
2022/07/17 05:03:03;;;;;;;;;;;18.30;85.80;;;;;;5013474;28;19910;-72
2022/07/17 05:05:30;;;;;;;;;;;18.20;86.40;;;;;;5013464;28;20406;-72
2022/07/17 05:07:56;;;;;;;;;;;18.10;86.90;;;;;;5013585;28;20263;-71
2022/07/17 05:10:23;;;;;;;;;;;18.10;88.10;;;;;;5012923;28;19916;-73
2022/07/17 05:12:50;;;;;;;;;;;18.00;87.50;;;;;;5013603;28;19960;-73
2022/07/17 05:15:16;;;;;;;;;;;17.90;86.30;;;;;;5013276;28;19914;-73
2022/07/17 05:17:43;;;;;;;;;;;17.80;87.30;;;;;;5013424;28;20040;-72
2022/07/17 05:20:10;;;;;;;;;;;17.90;88.10;;;;;;5013465;28;20067;-72
2022/07/17 05:22:37;;;;;;;;;;;17.80;87.80;;;;;;5013290;28;19910;-72
2022/07/17 05:25:04;;;;;;;;;;;17.90;87.20;;;;;;5028068;28;19916;-71
2022/07/17 05:27:30;;;;;;;;;;;18.00;84.00;;;;;;5013341;28;19910;-72
2022/07/17 05:29:57;;;;;;;;;;;18.10;85.50;;;;;;5012912;28;20374;-72
2022/07/17 05:32:24;;;;;;;;;;;18.10;84.70;;;;;;5013224;28;19914;-72
2022/07/17 05:34:50;;;;;;;;;;;18.00;85.00;;;;;;5012861;28;19933;-71
2022/07/17 05:37:17;;;;;;;;;;;18.00;86.30;;;;;;5012870;28;19914;-72
2022/07/17 05:39:44;;;;;;;;;;;17.90;85.90;;;;;;5012876;28;19916;-72
2022/07/17 05:42:10;;;;;;;;;;;17.80;87.60;;;;;;5013124;28;19909;-71
2022/07/17 05:44:37;;;;;;;;;;;17.80;86.20;;;;;;5012896;28;19914;-71
2022/07/17 05:47:04;;;;;;;;;;;17.80;86.70;;;;;;5012964;28;19917;-72
2022/07/17 05:49:31;;;;;;;;;;;17.90;85.10;;;;;;5012933;28;20410;-72
2022/07/17 05:51:57;;;;;;;;;;;17.80;85.40;;;;;;5012972;28;20422;-72
2022/07/17 05:54:24;;;;;;;;;;;17.70;84.40;;;;;;5012860;28;19910;-72
2022/07/17 05:56:51;;;;;;;;;;;17.80;88.40;;;;;;5012538;28;20383;-72
2022/07/17 05:59:17;;;;;;;;;;;17.80;85.80;;;;;;5012811;28;20167;-72
2022/07/17 06:01:44;;;;;;;;;;;17.80;85.50;;;;;;5013020;28;20338;-72
2022/07/17 06:04:11;;;;;;;;;;;17.70;85.60;;;;;;5012642;28;19910;-72
2022/07/17 06:06:37;;;;;;;;;;;17.60;85.00;;;;;;5012122;28;19910;-72
2022/07/17 06:09:04;;;;;;;;;;;17.50;84.50;;;;;;5011343;28;19909;-72
2022/07/17 06:11:31;;;;;;;;;;;17.60;84.00;;;;;;5012914;28;19909;-72
2022/07/17 06:13:57;;;;;;;;;;;17.60;85.30;;;;;;5013391;28;19913;-73
2022/07/17 06:16:24;;;;;;;;;;;17.50;85.20;;;;;;5013328;28;19924;-73
2022/07/17 06:18:51;;;;;;;;;;;17.50;86.70;;;;;;5013056;28;19999;-72
2022/07/17 06:21:17;;;;;;;;;;;17.50;83.60;;;;;;5013067;28;19920;-73
2022/07/17 06:23:44;;;;;;;;;;;17.50;84.70;;;;;;5017277;28;19941;-73
2022/07/17 06:26:11;;;;;;;;;;;17.40;85.10;;;;;;5017388;28;20275;-73
2022/07/17 06:28:38;;;;;;;;;;;17.30;85.30;;;;;;5016989;28;19960;-73
2022/07/17 06:31:05;;;;;;;;;;;17.20;84.40;;;;;;5016808;28;20031;-73
2022/07/17 06:33:32;;;;;;;;;;;17.20;84.00;;;;;;5017172;28;19909;-71
2022/07/17 06:35:58;;;;;;;;;;;17.10;83.00;;;;;;5016531;28;19921;-73
2022/07/17 06:38:25;;;;;;;;;;;17.10;84.80;;;;;;5017064;28;19910;-73
2022/07/17 06:40:52;;;;;;;;;;;17.10;85.10;;;;;;5016872;28;19956;-72
2022/07/17 06:43:20;;;;;;;;;;;17.00;86.00;;;;;;5016963;28;19910;-72
2022/07/17 06:45:46;;;;;;;;;;;17.00;85.50;;;;;;5017095;28;19909;-72
2022/07/17 06:48:13;;;;;;;;;;;17.00;85.90;;;;;;5016831;28;20009;-72
2022/07/17 06:50:41;;;;;;;;;;;16.80;84.70;;;;;;5016098;28;20004;-72
2022/07/17 06:53:07;;;;;;;;;;;16.90;85.70;;;;;;5016466;28;19969;-72
2022/07/17 06:55:34;;;;;;;;;;;16.80;85.20;;;;;;5016695;28;19956;-72
2022/07/17 06:58:01;;;;;;;;;;;16.80;87.30;;;;;;5016576;28;19909;-72
2022/07/17 07:00:28;;;;;;;;;;;16.70;86.10;;;;;;5016676;28;20275;-72
2022/07/17 07:02:54;;;;;;;;;;;16.70;86.30;;;;;;5016401;28;19917;-72
2022/07/17 07:05:21;;;;;;;;;;;16.70;87.00;;;;;;5015650;28;19921;-72
2022/07/17 07:07:48;;;;;;;;;;;16.70;86.90;;;;;;5016430;28;19914;-72
2022/07/17 07:10:15;;;;;;;;;;;16.60;86.00;;;;;;5016413;28;19909;-72
2022/07/17 07:12:42;;;;;;;;;;;16.60;86.30;;;;;;5016317;28;19909;-72
2022/07/17 07:15:09;;;;;;;;;;;16.50;86.40;;;;;;5015793;28;19924;-72
2022/07/17 07:17:36;;;;;;;;;;;16.40;86.80;;;;;;5016264;28;20406;-72
2022/07/17 07:20:06;;;;;;;;;;;16.40;86.80;;;;;;5015699;28;20357;-72
2022/07/17 07:22:33;;;;;;;;;;;16.40;86.70;;;;;;5016247;28;19910;-72
2022/07/17 07:25:00;;;;;;;;;;;16.30;86.00;;;;;;5015944;28;19964;-72
2022/07/17 07:27:26;;;;;;;;;;;16.30;87.60;;;;;;5015920;28;20321;-72
2022/07/17 07:29:53;;;;;;;;;;;16.30;87.20;;;;;;5015689;28;19916;-72
2022/07/17 07:32:20;;;;;;;;;;;16.30;85.50;;;;;;5015184;28;19913;-72
2022/07/17 07:34:46;;;;;;;;;;;16.30;86.10;;;;;;5015042;28;19952;-72
2022/07/17 07:37:13;;;;;;;;;;;16.30;86.70;;;;;;5015405;28;20000;-72
2022/07/17 07:39:40;;;;;;;;;;;16.30;87.50;;;;;;5015892;28;19909;-72
2022/07/17 07:42:07;;;;;;;;;;;16.20;87.20;;;;;;5015783;28;19910;-72
2022/07/17 07:44:35;;;;;;;;;;;16.30;86.30;;;;;;5015500;28;19972;-72
2022/07/17 07:47:02;;;;;;;;;;;16.20;86.70;;;;;;5015464;28;19985;-72
2022/07/17 07:49:29;;;;;;;;;;;16.20;86.70;;;;;;5012540;28;19916;-72
2022/07/17 07:51:56;;;;;;;;;;;16.20;87.50;;;;;;5013547;28;19909;-72
2022/07/17 07:54:22;;;;;;;;;;;16.20;87.70;;;;;;5013348;28;19920;-72
2022/07/17 07:56:49;;;;;;;;;;;16.20;87.00;;;;;;5013581;28;19997;-72
2022/07/17 07:59:16;;;;;;;;;;;16.20;88.50;;;;;;5013010;28;19913;-72
2022/07/17 08:01:42;;;;;;;;;;;16.10;88.00;;;;;;5012818;28;19920;-71
2022/07/17 08:04:09;;;;;;;;;;;16.20;89.10;;;;;;5012745;28;19945;-71
2022/07/17 08:06:36;;;;;;;;;;;16.20;87.10;;;;;;5013358;28;20012;-71
2022/07/17 08:09:03;;;;;;;;;;;16.20;87.60;;;;;;5012969;28;20279;-71
2022/07/17 08:11:29;;;;;;;;;;;16.10;87.80;;;;;;5013185;28;19910;-71
2022/07/17 08:13:56;;;;;;;;;;;16.10;88.50;;;;;;5012687;28;20364;-71
2022/07/17 08:16:23;;;;;;;;;;;16.10;88.30;;;;;;5012818;28;19925;-71
2022/07/17 08:18:49;;;;;;;;;;;16.20;87.90;;;;;;5012424;28;19996;-71
2022/07/17 08:21:16;;;;;;;;;;;16.20;89.00;;;;;;5012888;28;19936;-72
2022/07/17 08:23:43;;;;;;;;;;;16.20;89.80;;;;;;5012920;28;19913;-72
2022/07/17 08:26:10;;;;;;;;;;;16.10;89.00;;;;;;5012756;28;20364;-71
2022/07/17 08:28:36;;;;;;;;;;;16.10;90.30;;;;;;5012252;28;19910;-72
2022/07/17 08:31:03;;;;;;;;;;;16.00;89.50;;;;;;5012503;28;20352;-72
2022/07/17 08:33:30;;;;;;;;;;;16.00;89.40;;;;;;5012171;28;19932;-72
2022/07/17 08:35:57;;;;;;;;;;;15.90;90.00;;;;;;5012548;28;20016;-72
2022/07/17 08:38:23;;;;;;;;;;;15.90;89.80;;;;;;5012712;28;20275;-71
2022/07/17 08:40:52;;;;;;;;;;;16.00;90.40;;;;;;5012059;28;19918;-72
2022/07/17 08:43:19;;;;;;;;;;;15.90;89.70;;;;;;5012349;28;19917;-72
2022/07/17 08:45:46;;;;;;;;;;;15.90;90.50;;;;;;5011629;28;19916;-72
2022/07/17 08:48:14;;;;;;;;;;;15.90;90.20;;;;;;5012054;28;20354;-72
2022/07/17 08:50:41;;;;;;;;;;;15.80;90.40;;;;;;5012384;28;19936;-71
2022/07/17 08:53:07;;;;;;;;;;;15.80;90.90;;;;;;5011799;28;19910;-71
2022/07/17 08:55:34;;;;;;;;;;;15.80;90.80;;;;;;5012202;28;20008;-71
2022/07/17 08:58:01;;;;;;;;;;;15.70;90.40;;;;;;5012386;28;19969;-72
2022/07/17 09:00:28;;;;;;;;;;;15.70;90.90;;;;;;5012214;28;20367;-72
2022/07/17 09:03:00;;;;;;;;;;;15.70;90.10;;;;;;5011479;28;19910;-72
2022/07/17 09:05:29;;;;;;;;;;;15.70;91.00;;;;;;5013356;28;19921;-72
2022/07/17 09:07:56;;;;;;;;;;;15.60;90.50;;;;;;5014164;28;19916;-72
2022/07/17 09:10:32;;;;;;;;;;;15.60;91.20;;;;;;5013968;28;19910;-72
2022/07/17 09:13:00;;;;;;;;;;;15.60;90.50;;;;;;5013331;28;19909;-72
2022/07/17 09:15:27;;;;;;;;;;;15.60;90.70;;;;;;5014160;28;19924;-72
2022/07/17 09:17:56;;;;;;;;;;;15.60;90.70;;;;;;5013715;28;19909;-72
2022/07/17 09:20:22;;;;;;;;;;;15.60;91.30;;;;;;5013996;28;19916;-72
2022/07/17 09:22:59;;;;;;;;;;;15.60;91.10;;;;;;5013911;28;19909;-72
2022/07/17 09:25:43;;;;;;;;;;;15.60;91.70;;;;;;5014007;28;19909;-72
2022/07/17 09:28:11;;;;;;;;;;;15.50;91.50;;;;;;5014019;28;19917;-72
2022/07/17 09:30:39;;;;;;;;;;;15.50;91.90;;;;;;5013910;28;19909;-72
2022/07/17 09:33:17;;;;;;;;;;;15.50;91.50;;;;;;5013698;28;19909;-72
2022/07/17 09:35:48;;;;;;;;;;;15.50;92.20;;;;;;5013577;28;20012;-72
2022/07/17 09:38:33;;;;;;;;;;;15.40;92.10;;;;;;5013784;28;19909;-72
2022/07/17 09:41:16;;;;;;;;;;;15.30;92.00;;;;;;5012095;28;19909;-72
2022/07/17 09:43:52;;;;;;;;;;;15.40;92.00;;;;;;5013083;28;19916;-71
2022/07/17 09:46:23;;;;;;;;;;;15.30;91.90;;;;;;5013601;28;19917;-72
2022/07/17 09:48:54;;;;;;;;;;;15.20;92.00;;;;;;5013684;28;19909;-71
2022/07/17 09:51:25;;;;;;;;;;;15.20;92.00;;;;;;5013755;28;19909;-71
2022/07/17 09:53:54;;;;;;;;;;;15.20;92.20;;;;;;5013336;28;19916;-71
2022/07/17 09:56:21;;;;;;;;;;;15.20;93.00;;;;;;5013180;28;20356;-71
2022/07/17 09:58:52;;;;;;;;;;;15.20;92.50;;;;;;5012861;28;19909;-71
2022/07/17 10:01:20;;;;;;;;;;;15.20;93.10;;;;;;5013402;28;20275;-71
2022/07/17 10:03:48;;;;;;;;;;;15.10;92.70;;;;;;5013477;28;19909;-71
2022/07/17 10:06:15;;;;;;;;;;;15.10;93.40;;;;;;5013071;28;19922;-71
2022/07/17 10:08:42;;;;;;;;;;;15.10;93.20;;;;;;5013348;28;20003;-72
2022/07/17 10:11:10;;;;;;;;;;;15.10;93.60;;;;;;5013091;28;19909;-72
2022/07/17 10:13:40;;;;;;;;;;;15.10;93.40;;;;;;5012796;28;19917;-72
2022/07/17 10:16:08;;;;;;;;;;;15.10;93.30;;;;;;5013300;28;19917;-71
2022/07/17 10:18:36;;;;;;;;;;;15.00;93.60;;;;;;5013318;28;19910;-71
2022/07/17 10:21:21;;;;;;;;;;;15.00;93.90;;;;;;5012839;28;19913;-71
2022/07/17 10:23:51;;;;;;;;;;;14.90;93.80;;;;;;5013266;28;20284;-71
2022/07/17 10:26:20;;;;;;;;;;;15.00;93.80;;;;;;5013425;28;19972;-71
2022/07/17 10:28:47;;;;;;;;;;;15.10;94.30;;;;;;5012460;28;20025;-71
2022/07/17 10:31:24;;;;;;;;;;;15.10;93.90;;;;;;5012977;28;20350;-71
2022/07/17 10:34:00;;;;;;;;;;;15.10;93.60;;;;;;5012701;28;20307;-71
2022/07/17 10:36:41;;;;;;;;;;;15.00;94.00;;;;;;5013032;28;19922;-71
2022/07/17 10:39:17;;;;;;;;;;;15.00;94.00;;;;;;5013016;28;19910;-72
2022/07/17 10:41:55;;;;;;;;;;;14.90;93.90;;;;;;5013119;28;20455;-71
2022/07/17 10:44:29;;;;;;;;;;;14.90;94.30;;;;;;5013236;28;19917;-71
2022/07/17 10:46:56;;;;;;;;;;;14.90;94.30;;;;;;5012844;28;20390;-71
2022/07/17 10:49:24;;;;;;;;;;;14.80;94.80;;;;;;5013053;28;19909;-71
2022/07/17 10:51:51;;;;;;;;;;;14.80;95.00;;;;;;5012966;28;19910;-71
2022/07/17 10:54:18;;;;;;;;;;;14.80;94.50;;;;;;4995321;28;20075;-72
2022/07/17 10:56:48;;;;;;;;;;;14.80;94.90;;;;;;5012992;28;20020;-71
2022/07/17 10:59:15;;;;;;;;;;;14.80;94.60;;;;;;5012883;28;19910;-71
2022/07/17 11:01:42;;;;;;;;;;;14.80;94.80;;;;;;5011806;28;19910;-71
2022/07/17 11:04:09;;;;;;;;;;;14.80;95.00;;;;;;5012778;28;19913;-71
2022/07/17 11:06:36;;;;;;;;;;;14.80;95.20;;;;;;5012975;28;19957;-72
2022/07/17 11:09:03;;;;;;;;;;;14.70;95.10;;;;;;5030447;28;20426;-72
2022/07/17 11:11:36;;;;;;;;;;;14.80;94.70;;;;;;5016308;28;19913;-72
2022/07/17 11:14:18;;;;;;;;;;;14.70;95.00;;;;;;5016135;28;20356;-71
2022/07/17 11:16:46;;;;;;;;;;;14.70;95.00;;;;;;5016157;28;19921;-71
2022/07/17 11:19:20;;;;;;;;;;;14.70;95.10;;;;;;5015967;28;19910;-71
2022/07/17 11:21:50;;;;;;;;;;;14.70;95.30;;;;;;5016297;28;19917;-73
2022/07/17 11:24:17;;;;;;;;;;;14.70;95.90;;;;;;5016336;28;19943;-72
2022/07/17 11:26:44;;;;;;;;;;;14.70;95.90;;;;;;5016034;28;19949;-72
2022/07/17 11:29:11;;;;;;;;;;;14.60;95.90;;;;;;5015942;28;20383;-72
2022/07/17 11:31:38;;;;;;;;;;;14.60;96.10;;;;;;5016011;28;19913;-72
2022/07/17 11:34:08;;;;;;;;;;;14.70;96.10;;;;;;4998425;28;20326;-72
2022/07/17 11:36:37;;;;;;;;;;;14.60;95.90;;;;;;5015870;28;19932;-72
2022/07/17 11:39:06;;;;;;;;;;;14.60;96.10;;;;;;5015928;28;19916;-72
2022/07/17 11:41:33;;;;;;;;;;;14.60;96.20;;;;;;5015728;28;19913;-71
2022/07/17 11:44:01;;;;;;;;;;;14.50;96.30;;;;;;5015884;28;19948;-71
2022/07/17 11:46:29;;;;;;;;;;;14.50;96.70;;;;;;5015619;28;19932;-73
2022/07/17 11:48:56;;;;;;;;;;;14.50;96.50;;;;;;5015703;28;19911;-72
2022/07/17 11:51:33;;;;;;;;;;;14.50;96.60;;;;;;5015711;28;19956;-71
2022/07/17 11:54:03;;;;;;;;;;;14.50;96.90;;;;;;5015637;28;19909;-72
2022/07/17 11:56:30;;;;;;;;;;;14.50;97.20;;;;;;5015479;28;19957;-72
2022/07/17 11:58:57;;;;;;;;;;;14.50;96.80;;;;;;5015473;28;19924;-72
2022/07/17 12:01:23;;;;;;;;;;;14.50;96.90;;;;;;5015740;28;20005;-72
2022/07/17 12:04:00;;;;;;;;;;;14.50;97.10;;;;;;5015571;28;19917;-72
2022/07/17 12:06:27;;;;;;;;;;;14.50;97.20;;;;;;5015422;28;20265;-72
2022/07/17 12:08:54;;;;;;;;;;;14.60;97.70;;;;;;5015254;28;19955;-72
2022/07/17 12:11:21;;;;;;;;;;;14.50;97.20;;;;;;5015469;28;19964;-72
2022/07/17 12:13:48;;;;;;;;;;;14.50;98.00;;;;;;5015323;28;19936;-72
2022/07/17 12:16:19;;;;;;;;;;;14.50;97.50;;;;;;5014969;28;19964;-72
2022/07/17 12:18:55;;;;;;;;;;;14.40;97.90;;;;;;5015244;28;19935;-72
2022/07/17 12:21:22;;;;;;;;;;;14.40;98.20;;;;;;5015321;28;19910;-72
2022/07/17 12:23:57;;;;;;;;;;;14.40;97.90;;;;;;5015156;28;20347;-71
2022/07/17 12:26:23;;;;;;;;;;;14.30;98.30;;;;;;5015032;28;19910;-71
2022/07/17 12:28:50;;;;;;;;;;;14.30;98.80;;;;;;5015145;28;19956;-71
2022/07/17 12:31:17;;;;;;;;;;;14.30;98.50;;;;;;5015089;28;19910;-71
2022/07/17 12:33:44;;;;;;;;;;;14.30;98.30;;;;;;5015099;28;19910;-71
2022/07/17 12:36:11;;;;;;;;;;;14.20;98.70;;;;;;5014908;28;19963;-71
2022/07/17 12:38:37;;;;;;;;;;;14.20;98.90;;;;;;5014824;28;20282;-72
2022/07/17 12:41:04;;;;;;;;;;;14.10;99.10;;;;;;5014685;28;20280;-72
2022/07/17 12:43:31;;;;;;;;;;;14.20;99.60;;;;;;5014728;28;19960;-72
2022/07/17 12:45:58;;;;;;;;;;;14.10;99.40;;;;;;5014797;28;19913;-72
2022/07/17 12:48:25;;;;;;;;;;;14.00;99.40;;;;;;5014852;28;19992;-72
2022/07/17 12:50:51;;;;;;;;;;;14.10;99.80;;;;;;5014588;28;19917;-72
2022/07/17 12:53:18;;;;;;;;;;;14.00;99.90;;;;;;5014674;28;19952;-72
2022/07/17 12:55:45;;;;;;;;;;;14.00;99.80;;;;;;5014513;28;20027;-72
2022/07/17 12:58:12;;;;;;;;;;;14.00;99.90;;;;;;5014542;28;20318;-72
2022/07/17 13:00:38;;;;;;;;;;;13.90;99.90;;;;;;5014601;28;19917;-72
2022/07/17 13:03:05;;;;;;;;;;;13.90;99.90;;;;;;5014386;28;19909;-72
2022/07/17 13:05:32;;;;;;;;;;;13.90;99.90;;;;;;5014354;28;19968;-72
2022/07/17 13:07:58;;;;;;;;;;;13.90;99.90;;;;;;5014472;28;20354;-72
2022/07/17 13:10:25;;;;;;;;;;;13.90;99.90;;;;;;5014258;28;19909;-72
2022/07/17 13:12:52;;;;;;;;;;;13.70;99.90;;;;;;5014144;28;20347;-72
2022/07/17 13:15:18;;;;;;;;;;;13.60;99.90;;;;;;5014192;28;19932;-72
2022/07/17 13:17:45;;;;;;;;;;;13.50;99.90;;;;;;5014249;28;19948;-72
2022/07/17 13:20:13;;;;;;;;;;;13.40;99.90;;;;;;5014077;28;19916;-72
2022/07/17 13:22:40;;;;;;;;;;;13.40;99.90;;;;;;5014167;28;20314;-72
2022/07/17 13:25:07;;;;;;;;;;;13.30;99.90;;;;;;5013990;28;19932;-72
2022/07/17 13:27:33;;;;;;;;;;;13.30;99.90;;;;;;5014021;28;19937;-72
2022/07/17 13:30:00;;;;;;;;;;;13.30;99.90;;;;;;5014016;28;19916;-72
2022/07/17 13:32:27;;;;;;;;;;;13.30;99.90;;;;;;5013725;28;20356;-70
2022/07/17 13:34:53;;;;;;;;;;;13.30;99.90;;;;;;5013745;28;19910;-71
2022/07/17 13:37:20;;;;;;;;;;;13.30;99.90;;;;;;5013860;28;20387;-71
2022/07/17 13:39:47;;;;;;;;;;;13.30;99.90;;;;;;5013938;28;19916;-71
2022/07/17 13:42:13;;;;;;;;;;;13.20;99.90;;;;;;5013802;28;19943;-71
2022/07/17 13:44:40;;;;;;;;;;;13.30;99.90;;;;;;5013883;28;19917;-71
2022/07/17 13:47:07;;;;;;;;;;;13.20;99.90;;;;;;5013621;28;19910;-71
2022/07/17 13:49:34;;;;;;;;;;;13.30;99.90;;;;;;5013723;28;19963;-71
2022/07/17 13:52:03;;;;;;;;;;;13.30;99.90;;;;;;5013865;28;19909;-71
2022/07/17 13:54:30;;;;;;;;;;;13.40;99.90;;;;;;5013725;28;19909;-71
2022/07/17 13:56:57;;;;;;;;;;;13.40;99.90;;;;;;5013285;28;19964;-72
2022/07/17 13:59:24;;;;;;;;;;;13.40;99.90;;;;;;5013689;28;19916;-72
2022/07/17 14:01:51;;;;;;;;;;;13.40;99.90;;;;;;5013568;28;19916;-72
2022/07/17 14:04:17;;;;;;;;;;;13.40;99.90;;;;;;5013422;28;19916;-71
2022/07/17 14:06:44;;;;;;;;;;;13.40;99.90;;;;;;5013613;28;19922;-72
2022/07/17 14:09:11;;;;;;;;;;;13.40;99.90;;;;;;5013317;28;19914;-72
2022/07/17 14:11:38;;;;;;;;;;;13.50;99.90;;;;;;5013418;28;19914;-72
2022/07/17 14:14:04;;;;;;;;;;;13.50;99.90;;;;;;5013546;28;19917;-72
2022/07/17 14:16:31;;;;;;;;;;;13.50;99.90;;;;;;5013589;28;20000;-71
2022/07/17 14:18:58;;;;;;;;;;;13.40;99.90;;;;;;5013371;28;19919;-72